Weather observations for the past three days for
Renton Municipal Airport
Imperial (Metric)
Date Time (pdt) Wind (mph) Vis. (mi.) Weather Sky Cond. Temperature (ºF) Relative Humidity Wind Chill (°F) Heat Index (°F) Pressure Precipitation (in)
Air Dwpt 6 hour altimeter (in) sea level (mb) 1 hr 3 hr 6 hr
Max. Min.
08 02:53 Calm 10.00 Fair CLR 51.1 46.9 86% 30.02 1017.0
08 01:53 Calm 10.00 Fair CLR 51.1 46.9 86% 30.01 1016.8
08 00:53 Calm 10.00 Fair CLR 53.1 46.9 80% 30.01 1016.8
07 23:53 S 3 10.00 Fair CLR 54 46.9 77% 30.02 1016.9
07 22:53 S 3 10.00 Fair CLR 55.9 46.9 64 55 72% 30.02 1017.0
07 21:53 Calm 10.00 Fair CLR 55.9 46.9 72% 30.02 1017.1
07 20:53 Calm 10.00 Fair CLR 59 48 67% 30.02 1017.0
07 19:53 Calm 10.00 Fair CLR 62.1 45 54% 30.02 1017.1
07 18:53 N 5 10.00 Fair CLR 63 46.9 56% 30.03 1017.3
07 17:53 N 5 10.00 Fair CLR 63 46 54% 30.04 1017.8
07 16:53 NW 8 10.00 Fair CLR 64 46 64 55.9 52% 30.05 1018.0
07 15:53 N 6 10.00 Fair CLR 62.1 46 56% 30.06 1018.5
07 14:53 N 7 10.00 Fair CLR 63 45 52% 30.08 1019.0
07 13:53 N 7 10.00 A Few Clouds FEW050 62.1 45 54% 30.1 1019.7
07 12:53 NW 6 10.00 Overcast SCT037 OVC055 60.1 44.1 56% 30.12 1020.3
07 11:53 Calm 10.00 Overcast OVC034 57.9 45 62% 30.12 1020.6
07 10:53 Calm 10.00 Overcast OVC029 57.9 45 57.9 50 62% 30.13 1020.9
07 09:53 S 5 10.00 Overcast BKN027 OVC034 55.9 45 67% 30.14 1021.0
07 08:53 SW 5 10.00 Mostly Cloudy BKN024 53.1 44.1 72% 30.14 1021.2
07 07:53 S 6 10.00 Overcast OVC024 54 44.1 69% 30.14 1021.3
07 06:53 SE 3 10.00 Mostly Cloudy BKN041 51.1 46 83% 30.14 1021.1
07 05:53 Calm 10.00 Mostly Cloudy BKN036 53.1 44.1 72% 30.13 1020.9
07 04:53 S 6 10.00 Overcast OVC036 53.1 44.1 54 53.1 72% 30.14 1021.2
07 03:53 S 5 10.00 Overcast BKN023 OVC038 54 46 75% 30.15 1021.5
07 02:53 Calm 10.00 Overcast BKN017 OVC027 53.1 48 83% 30.16 1021.7
07 01:53 S 5 10.00 Overcast OVC022 54 46.9 77% 30.16 1021.6
07 00:53 S 6 10.00 Overcast OVC022 54 48 80% 30.15 1021.6
06 23:53 S 7 10.00 Overcast SCT014 OVC021 54 48.9 83% 30.15 1021.5
06 22:53 SW 5 10.00 Overcast OVC016 54 48.9 59 54 83% 30.16 1021.6
06 21:53 SW 7 10.00 Overcast BKN021 OVC027 55.9 48.9 77% 30.15 1021.5
06 20:53 Calm 10.00 Overcast OVC028 55.9 48.9 77% 30.15 1021.3
06 19:53 S 6 10.00 Overcast OVC029 57.9 48 70% 30.13 1020.8
06 18:53 S 5 10.00 Overcast SCT029 OVC035 59 48 67% 30.13 1020.7
06 17:53 Vrbl 6 10.00 Overcast FEW027 OVC034 57.9 48 70% 30.13 1020.8
06 16:53 Vrbl 3 10.00 Overcast OVC038 57.9 48 59 55.9 70% 30.13 1020.9
06 15:53 S 8 10.00 Overcast OVC028 59 46.9 64% 30.14 1021.0
06 14:53 Vrbl 3 10.00 Overcast OVC027 57.9 46.9 67% 30.14 1021.2
06 13:53 S 8 10.00 Overcast OVC025 57.9 46.9 67% 30.14 1021.2
06 12:53 S 7 10.00 Overcast OVC020 57 48 72% 30.14 1021.1
06 11:53 SW 5 10.00 Overcast OVC018 55.9 48.9 77% 30.13 1020.9
06 10:53 S 7 10.00 Overcast OVC018 55.9 48.9 55.9 53.1 77% 30.12 1020.6
06 09:53 S 5 10.00 Overcast BKN009 OVC017 55 51.1 87% 30.13 1020.7
06 08:53 S 5 8.00 Overcast BKN009 OVC016 54 51.1 90% 30.12 1020.3
06 07:53 S 5 8.00 Overcast OVC011 54 51.1 90% 30.11 1020.2
06 06:53 SW 3 9.00 Overcast OVC012 55 51.1 87% 30.11 1019.9
06 05:53 SW 5 10.00 Overcast OVC014 55 51.1 87% 30.09 1019.4
06 04:53 S 5 10.00 Overcast SCT014 OVC023 54 50 59 54 87% 30.08 1019.0
06 03:53 S 6 10.00 Overcast OVC017 55 48.9 80% 30.07 1018.8
06 02:53 S 7 10.00 Overcast FEW017 OVC027 55.9 48.9 77% 30.06 1018.2
06 01:53 S 7 10.00 Overcast OVC027 55.9 50 81% 30.04 1017.8
06 00:53 S 5 10.00 Mostly Cloudy BKN030 55.9 50 81% 30.03 1017.5
05 23:53 Calm 10.00 Fair CLR 57 51.1 81% 30.02 1017.1
05 22:53 S 5 10.00 Fair CLR 59 51.1 66 57.9 75% 30 1016.5
05 21:53 Calm 10.00 Fair CLR 59 52 78% 29.99 1016.0
05 20:53 Calm 10.00 Fair CLR 61 52 72% 29.98 1015.7
05 19:53 S 5 10.00 Fair CLR 64 51.1 63% 29.97 1015.3
05 18:53 Calm 10.00 Fair CLR 64.9 51.1 61% 29.97 1015.2
05 17:53 S 6 10.00 Fair CLR 64.9 51.1 61% 29.97 1015.3
05 16:53 Vrbl 3 10.00 A Few Clouds FEW029 64.9 51.1 64.9 57.9 61% 29.98 1015.8
05 15:53 Vrbl 5 10.00 Overcast OVC027 63 50 63% 30 1016.2
05 14:53 Vrbl 5 10.00 Overcast OVC025 62.1 50 65% 30.01 1016.7
05 13:53 Vrbl 7 10.00 Overcast OVC023 61 50 67% 30.02 1016.9
05 12:53 SW 7 10.00 Overcast OVC021 59 50 72% 30.02 1017.0
05 11:53 SW 5 10.00 Overcast OVC020 57.9 50 75% 30.02 1016.9
05 10:53 S 3 10.00 Overcast OVC019 57.9 50 59 57 75% 30.01 1016.7
05 09:53 S 5 10.00 Overcast OVC017 57.9 50 75% 30.01 1016.5
05 08:53 S 5 10.00 Overcast OVC017 57 50 78% 30 1016.2
05 07:53 S 7 10.00 Overcast OVC016 57 50 78% 29.99 1016.0
05 06:53 S 6 10.00 Overcast OVC016 57 50 78% 29.97 1015.3
05 05:53 S 6 10.00 Overcast OVC016 57 50 78% 29.96 1014.8
05 04:53 S 6 10.00 Overcast OVC015 57 50 59 55.9 78% 29.95 1014.5
05 03:53 S 6 10.00 Overcast OVC014 57 50 78% 29.94 1014.4
Date Time (pdt) Wind (mph) Vis. (mi.) Weather Sky Cond. Air Dwpt Max. Min. Relative Humidity Wind Chill (°F) Heat Index (°F) altimeter (in) sea level (mb) 1 hr 3 hr 6 hr
6 hour
Temperature (ºF) Pressure Precipitation (in)